sensor_id;sensor_type;location;lat;lon;timestamp;P1;durP1;ratioP1;P2;durP2;ratioP2
3795;SDS011;1913;50.660;7.834;2023-02-28T00:00:09;5.73;;;2.40;;
3795;SDS011;1913;50.660;7.834;2023-02-28T00:02:37;8.17;;;2.43;;
3795;SDS011;1913;50.660;7.834;2023-02-28T00:05:03;5.47;;;2.63;;
3795;SDS011;1913;50.660;7.834;2023-02-28T00:07:30;6.53;;;2.30;;
3795;SDS011;1913;50.660;7.834;2023-02-28T00:09:56;5.73;;;2.33;;
3795;SDS011;1913;50.660;7.834;2023-02-28T00:12:21;6.60;;;3.03;;
3795;SDS011;1913;50.660;7.834;2023-02-28T00:14:47;4.97;;;2.60;;
3795;SDS011;1913;50.660;7.834;2023-02-28T00:17:13;5.47;;;2.93;;
3795;SDS011;1913;50.660;7.834;2023-02-28T00:19:38;5.53;;;2.50;;
3795;SDS011;1913;50.660;7.834;2023-02-28T00:22:04;6.83;;;2.63;;
3795;SDS011;1913;50.660;7.834;2023-02-28T00:24:29;7.93;;;2.67;;
3795;SDS011;1913;50.660;7.834;2023-02-28T00:26:55;4.67;;;2.47;;
3795;SDS011;1913;50.660;7.834;2023-02-28T00:29:20;6.90;;;2.80;;
3795;SDS011;1913;50.660;7.834;2023-02-28T00:31:46;6.33;;;3.13;;
3795;SDS011;1913;50.660;7.834;2023-02-28T00:34:11;4.43;;;2.40;;
3795;SDS011;1913;50.660;7.834;2023-02-28T00:36:36;7.23;;;2.40;;
3795;SDS011;1913;50.660;7.834;2023-02-28T00:39:02;4.30;;;2.40;;
3795;SDS011;1913;50.660;7.834;2023-02-28T00:41:27;2.63;;;2.43;;
3795;SDS011;1913;50.660;7.834;2023-02-28T00:43:53;5.20;;;2.40;;
3795;SDS011;1913;50.660;7.834;2023-02-28T00:46:18;3.83;;;2.73;;
3795;SDS011;1913;50.660;7.834;2023-02-28T00:48:43;7.07;;;3.10;;
3795;SDS011;1913;50.660;7.834;2023-02-28T00:51:09;11.40;;;3.23;;
3795;SDS011;1913;50.660;7.834;2023-02-28T00:53:34;8.23;;;2.40;;
3795;SDS011;1913;50.660;7.834;2023-02-28T00:56:00;4.23;;;2.73;;
3795;SDS011;1913;50.660;7.834;2023-02-28T00:58:26;3.43;;;2.60;;
3795;SDS011;1913;50.660;7.834;2023-02-28T01:00:51;3.83;;;2.50;;
3795;SDS011;1913;50.660;7.834;2023-02-28T01:03:19;3.00;;;2.30;;
3795;SDS011;1913;50.660;7.834;2023-02-28T01:05:45;2.70;;;2.03;;
3795;SDS011;1913;50.660;7.834;2023-02-28T01:08:12;2.57;;;2.37;;
3795;SDS011;1913;50.660;7.834;2023-02-28T01:10:38;3.33;;;2.40;;
3795;SDS011;1913;50.660;7.834;2023-02-28T01:13:04;3.70;;;2.50;;
3795;SDS011;1913;50.660;7.834;2023-02-28T01:15:29;2.90;;;2.23;;
3795;SDS011;1913;50.660;7.834;2023-02-28T01:17:56;2.70;;;2.20;;
3795;SDS011;1913;50.660;7.834;2023-02-28T01:20:22;3.73;;;2.87;;
3795;SDS011;1913;50.660;7.834;2023-02-28T01:22:48;5.83;;;3.07;;
3795;SDS011;1913;50.660;7.834;2023-02-28T01:25:13;3.10;;;2.37;;
3795;SDS011;1913;50.660;7.834;2023-02-28T01:27:38;3.00;;;2.37;;
3795;SDS011;1913;50.660;7.834;2023-02-28T01:30:05;4.73;;;2.70;;
3795;SDS011;1913;50.660;7.834;2023-02-28T01:32:32;3.60;;;2.40;;
3795;SDS011;1913;50.660;7.834;2023-02-28T01:34:57;4.03;;;2.20;;
3795;SDS011;1913;50.660;7.834;2023-02-28T01:37:22;4.13;;;2.63;;
3795;SDS011;1913;50.660;7.834;2023-02-28T01:39:48;3.90;;;2.70;;
3795;SDS011;1913;50.660;7.834;2023-02-28T01:42:13;3.90;;;2.30;;
3795;SDS011;1913;50.660;7.834;2023-02-28T01:44:55;4.80;;;2.10;;
3795;SDS011;1913;50.660;7.834;2023-02-28T01:47:41;5.20;;;2.50;;
3795;SDS011;1913;50.660;7.834;2023-02-28T01:50:12;6.10;;;2.67;;
3795;SDS011;1913;50.660;7.834;2023-02-28T01:52:43;7.47;;;2.70;;
3795;SDS011;1913;50.660;7.834;2023-02-28T01:55:10;4.80;;;2.47;;
3795;SDS011;1913;50.660;7.834;2023-02-28T01:57:39;3.13;;;2.37;;
3795;SDS011;1913;50.660;7.834;2023-02-28T02:00:12;3.63;;;2.47;;
3795;SDS011;1913;50.660;7.834;2023-02-28T02:02:43;2.43;;;2.10;;
3795;SDS011;1913;50.660;7.834;2023-02-28T02:05:15;5.67;;;2.43;;
3795;SDS011;1913;50.660;7.834;2023-02-28T02:07:44;3.50;;;2.30;;
3795;SDS011;1913;50.660;7.834;2023-02-28T02:10:13;3.90;;;2.23;;
3795;SDS011;1913;50.660;7.834;2023-02-28T02:15:35;2.00;;;1.90;;
3795;SDS011;1913;50.660;7.834;2023-02-28T02:18:10;3.47;;;2.60;;
3795;SDS011;1913;50.660;7.834;2023-02-28T02:37:12;4.30;;;2.53;;
3795;SDS011;1913;50.660;7.834;2023-02-28T02:40:00;3.43;;;2.37;;
3795;SDS011;1913;50.660;7.834;2023-02-28T02:42:35;4.33;;;2.60;;
3795;SDS011;1913;50.660;7.834;2023-02-28T02:45:18;4.17;;;2.67;;
3795;SDS011;1913;50.660;7.834;2023-02-28T02:47:49;3.30;;;2.43;;
3795;SDS011;1913;50.660;7.834;2023-02-28T02:50:17;2.83;;;2.63;;
3795;SDS011;1913;50.660;7.834;2023-02-28T02:52:50;3.43;;;2.47;;
3795;SDS011;1913;50.660;7.834;2023-02-28T02:55:18;3.53;;;2.73;;
3795;SDS011;1913;50.660;7.834;2023-02-28T02:57:48;6.77;;;2.87;;
3795;SDS011;1913;50.660;7.834;2023-02-28T03:00:17;6.10;;;3.30;;
3795;SDS011;1913;50.660;7.834;2023-02-28T03:02:48;4.07;;;3.13;;
3795;SDS011;1913;50.660;7.834;2023-02-28T03:05:27;4.63;;;3.23;;
3795;SDS011;1913;50.660;7.834;2023-02-28T03:07:57;4.80;;;3.00;;
3795;SDS011;1913;50.660;7.834;2023-02-28T03:13:00;4.73;;;3.10;;
3795;SDS011;1913;50.660;7.834;2023-02-28T03:15:40;5.00;;;3.20;;
3795;SDS011;1913;50.660;7.834;2023-02-28T03:18:43;4.57;;;2.70;;
3795;SDS011;1913;50.660;7.834;2023-02-28T03:21:37;8.10;;;3.50;;
3795;SDS011;1913;50.660;7.834;2023-02-28T03:24:11;5.67;;;3.50;;
3795;SDS011;1913;50.660;7.834;2023-02-28T03:26:43;5.17;;;3.20;;
3795;SDS011;1913;50.660;7.834;2023-02-28T03:31:50;7.77;;;3.67;;
3795;SDS011;1913;50.660;7.834;2023-02-28T03:34:31;12.37;;;3.27;;
3795;SDS011;1913;50.660;7.834;2023-02-28T03:37:01;6.23;;;3.33;;
3795;SDS011;1913;50.660;7.834;2023-02-28T03:39:39;8.73;;;3.40;;
3795;SDS011;1913;50.660;7.834;2023-02-28T03:42:09;5.20;;;3.80;;
3795;SDS011;1913;50.660;7.834;2023-02-28T03:44:45;4.60;;;3.00;;
3795;SDS011;1913;50.660;7.834;2023-02-28T03:47:35;4.97;;;3.30;;
3795;SDS011;1913;50.660;7.834;2023-02-28T03:50:11;4.87;;;3.50;;
3795;SDS011;1913;50.660;7.834;2023-02-28T03:52:47;4.13;;;3.20;;
3795;SDS011;1913;50.660;7.834;2023-02-28T03:55:28;5.33;;;2.90;;
3795;SDS011;1913;50.660;7.834;2023-02-28T04:00:45;6.60;;;4.13;;
3795;SDS011;1913;50.660;7.834;2023-02-28T04:03:13;5.90;;;3.70;;
3795;SDS011;1913;50.660;7.834;2023-02-28T04:05:50;6.10;;;3.73;;
3795;SDS011;1913;50.660;7.834;2023-02-28T04:08:17;6.10;;;3.60;;
3795;SDS011;1913;50.660;7.834;2023-02-28T04:10:43;4.37;;;3.60;;
3795;SDS011;1913;50.660;7.834;2023-02-28T04:13:12;7.60;;;3.27;;
3795;SDS011;1913;50.660;7.834;2023-02-28T04:15:37;8.97;;;3.80;;
3795;SDS011;1913;50.660;7.834;2023-02-28T04:18:03;6.10;;;3.07;;
3795;SDS011;1913;50.660;7.834;2023-02-28T04:20:28;6.13;;;3.80;;
3795;SDS011;1913;50.660;7.834;2023-02-28T04:22:53;5.43;;;3.47;;
3795;SDS011;1913;50.660;7.834;2023-02-28T04:25:19;4.17;;;3.20;;
3795;SDS011;1913;50.660;7.834;2023-02-28T04:27:44;4.53;;;3.27;;
3795;SDS011;1913;50.660;7.834;2023-02-28T04:30:10;5.10;;;3.50;;
3795;SDS011;1913;50.660;7.834;2023-02-28T04:32:36;6.07;;;3.60;;
3795;SDS011;1913;50.660;7.834;2023-02-28T04:35:01;3.43;;;3.13;;
3795;SDS011;1913;50.660;7.834;2023-02-28T04:37:27;5.07;;;3.40;;
3795;SDS011;1913;50.660;7.834;2023-02-28T04:39:53;4.93;;;2.80;;
3795;SDS011;1913;50.660;7.834;2023-02-28T04:42:19;4.23;;;2.80;;
3795;SDS011;1913;50.660;7.834;2023-02-28T04:44:45;4.20;;;3.10;;
3795;SDS011;1913;50.660;7.834;2023-02-28T04:47:12;4.67;;;3.37;;
3795;SDS011;1913;50.660;7.834;2023-02-28T04:49:37;5.13;;;3.03;;
3795;SDS011;1913;50.660;7.834;2023-02-28T04:52:03;4.83;;;3.67;;
3795;SDS011;1913;50.660;7.834;2023-02-28T04:54:29;5.30;;;3.20;;
3795;SDS011;1913;50.660;7.834;2023-02-28T04:56:55;4.80;;;3.10;;
3795;SDS011;1913;50.660;7.834;2023-02-28T04:59:20;5.47;;;3.47;;
3795;SDS011;1913;50.660;7.834;2023-02-28T05:01:46;4.50;;;3.07;;
3795;SDS011;1913;50.660;7.834;2023-02-28T05:04:13;3.67;;;2.97;;
3795;SDS011;1913;50.660;7.834;2023-02-28T05:06:38;4.87;;;3.33;;
3795;SDS011;1913;50.660;7.834;2023-02-28T05:09:03;5.73;;;3.23;;
3795;SDS011;1913;50.660;7.834;2023-02-28T05:11:30;4.97;;;3.30;;
3795;SDS011;1913;50.660;7.834;2023-02-28T05:14:01;3.70;;;2.77;;
3795;SDS011;1913;50.660;7.834;2023-02-28T05:16:28;4.17;;;2.80;;
3795;SDS011;1913;50.660;7.834;2023-02-28T05:18:54;3.93;;;3.00;;
3795;SDS011;1913;50.660;7.834;2023-02-28T05:23:53;4.60;;;3.13;;
3795;SDS011;1913;50.660;7.834;2023-02-28T05:26:20;5.90;;;3.73;;
3795;SDS011;1913;50.660;7.834;2023-02-28T05:28:46;3.90;;;3.10;;
3795;SDS011;1913;50.660;7.834;2023-02-28T05:31:11;5.57;;;3.40;;
3795;SDS011;1913;50.660;7.834;2023-02-28T05:33:37;5.00;;;4.00;;
3795;SDS011;1913;50.660;7.834;2023-02-28T05:36:03;5.10;;;3.67;;
3795;SDS011;1913;50.660;7.834;2023-02-28T05:38:29;4.67;;;3.63;;
3795;SDS011;1913;50.660;7.834;2023-02-28T05:40:54;6.07;;;3.93;;
3795;SDS011;1913;50.660;7.834;2023-02-28T05:43:20;6.13;;;4.23;;
3795;SDS011;1913;50.660;7.834;2023-02-28T05:45:45;5.30;;;4.10;;
3795;SDS011;1913;50.660;7.834;2023-02-28T05:48:10;7.27;;;4.37;;
3795;SDS011;1913;50.660;7.834;2023-02-28T05:50:36;5.97;;;4.27;;
3795;SDS011;1913;50.660;7.834;2023-02-28T05:53:02;7.97;;;4.53;;
3795;SDS011;1913;50.660;7.834;2023-02-28T05:55:27;8.10;;;4.70;;
3795;SDS011;1913;50.660;7.834;2023-02-28T05:57:53;6.27;;;4.30;;
3795;SDS011;1913;50.660;7.834;2023-02-28T06:00:18;6.50;;;4.30;;
3795;SDS011;1913;50.660;7.834;2023-02-28T06:02:44;7.83;;;4.80;;
3795;SDS011;1913;50.660;7.834;2023-02-28T06:05:14;8.07;;;4.70;;
3795;SDS011;1913;50.660;7.834;2023-02-28T06:07:42;9.43;;;4.90;;
3795;SDS011;1913;50.660;7.834;2023-02-28T06:10:08;5.47;;;4.10;;
3795;SDS011;1913;50.660;7.834;2023-02-28T06:12:34;5.80;;;3.93;;
3795;SDS011;1913;50.660;7.834;2023-02-28T06:15:00;9.47;;;5.00;;
3795;SDS011;1913;50.660;7.834;2023-02-28T06:17:25;5.90;;;3.47;;
3795;SDS011;1913;50.660;7.834;2023-02-28T06:19:51;5.83;;;3.93;;
3795;SDS011;1913;50.660;7.834;2023-02-28T06:22:16;5.47;;;3.73;;
3795;SDS011;1913;50.660;7.834;2023-02-28T06:24:42;4.70;;;3.47;;
3795;SDS011;1913;50.660;7.834;2023-02-28T06:27:07;5.63;;;3.80;;
3795;SDS011;1913;50.660;7.834;2023-02-28T06:29:33;5.10;;;3.57;;
3795;SDS011;1913;50.660;7.834;2023-02-28T06:31:59;4.30;;;3.17;;
3795;SDS011;1913;50.660;7.834;2023-02-28T06:34:25;3.03;;;2.70;;
3795;SDS011;1913;50.660;7.834;2023-02-28T06:36:51;3.00;;;2.70;;
3795;SDS011;1913;50.660;7.834;2023-02-28T06:39:17;3.80;;;2.70;;
3795;SDS011;1913;50.660;7.834;2023-02-28T06:41:43;3.40;;;2.37;;
3795;SDS011;1913;50.660;7.834;2023-02-28T06:44:14;4.60;;;3.00;;
3795;SDS011;1913;50.660;7.834;2023-02-28T06:46:41;3.20;;;2.57;;
3795;SDS011;1913;50.660;7.834;2023-02-28T06:49:09;3.20;;;2.30;;
3795;SDS011;1913;50.660;7.834;2023-02-28T06:51:36;5.43;;;2.87;;
3795;SDS011;1913;50.660;7.834;2023-02-28T06:54:03;4.00;;;2.90;;
3795;SDS011;1913;50.660;7.834;2023-02-28T06:56:29;4.87;;;2.90;;
3795;SDS011;1913;50.660;7.834;2023-02-28T06:58:54;4.07;;;3.13;;
3795;SDS011;1913;50.660;7.834;2023-02-28T07:01:20;4.30;;;3.63;;
3795;SDS011;1913;50.660;7.834;2023-02-28T07:03:47;5.00;;;3.00;;
3795;SDS011;1913;50.660;7.834;2023-02-28T07:06:20;4.70;;;3.00;;
3795;SDS011;1913;50.660;7.834;2023-02-28T07:08:50;2.77;;;2.13;;
3795;SDS011;1913;50.660;7.834;2023-02-28T07:11:20;4.43;;;2.70;;
3795;SDS011;1913;50.660;7.834;2023-02-28T07:13:51;4.10;;;2.70;;
3795;SDS011;1913;50.660;7.834;2023-02-28T07:16:17;4.27;;;2.43;;
3795;SDS011;1913;50.660;7.834;2023-02-28T07:18:43;4.17;;;2.43;;
3795;SDS011;1913;50.660;7.834;2023-02-28T07:21:09;5.40;;;2.60;;
3795;SDS011;1913;50.660;7.834;2023-02-28T07:23:35;3.70;;;2.30;;
3795;SDS011;1913;50.660;7.834;2023-02-28T07:26:03;3.33;;;2.47;;
3795;SDS011;1913;50.660;7.834;2023-02-28T07:28:29;4.73;;;2.47;;
3795;SDS011;1913;50.660;7.834;2023-02-28T07:30:55;4.40;;;2.70;;
3795;SDS011;1913;50.660;7.834;2023-02-28T07:33:20;3.00;;;2.70;;
3795;SDS011;1913;50.660;7.834;2023-02-28T07:35:45;4.87;;;2.60;;
3795;SDS011;1913;50.660;7.834;2023-02-28T07:38:11;4.70;;;2.67;;
3795;SDS011;1913;50.660;7.834;2023-02-28T07:40:39;7.17;;;2.90;;
3795;SDS011;1913;50.660;7.834;2023-02-28T07:43:04;4.67;;;2.40;;
3795;SDS011;1913;50.660;7.834;2023-02-28T07:45:30;3.03;;;2.43;;
3795;SDS011;1913;50.660;7.834;2023-02-28T07:47:59;2.70;;;2.27;;
3795;SDS011;1913;50.660;7.834;2023-02-28T07:50:25;2.17;;;1.97;;
3795;SDS011;1913;50.660;7.834;2023-02-28T07:52:52;3.97;;;2.70;;
3795;SDS011;1913;50.660;7.834;2023-02-28T07:55:18;5.27;;;2.73;;
3795;SDS011;1913;50.660;7.834;2023-02-28T07:57:43;2.87;;;2.00;;
3795;SDS011;1913;50.660;7.834;2023-02-28T08:00:10;2.50;;;1.90;;
3795;SDS011;1913;50.660;7.834;2023-02-28T08:02:37;2.93;;;2.20;;
3795;SDS011;1913;50.660;7.834;2023-02-28T08:05:03;2.00;;;1.80;;
3795;SDS011;1913;50.660;7.834;2023-02-28T08:07:28;2.20;;;1.93;;
3795;SDS011;1913;50.660;7.834;2023-02-28T08:09:54;3.43;;;2.00;;
3795;SDS011;1913;50.660;7.834;2023-02-28T08:12:19;2.40;;;2.20;;
3795;SDS011;1913;50.660;7.834;2023-02-28T08:14:45;3.07;;;2.37;;
3795;SDS011;1913;50.660;7.834;2023-02-28T08:17:10;2.23;;;2.00;;
3795;SDS011;1913;50.660;7.834;2023-02-28T08:19:36;3.57;;;2.23;;
3795;SDS011;1913;50.660;7.834;2023-02-28T08:22:01;3.60;;;2.20;;
3795;SDS011;1913;50.660;7.834;2023-02-28T08:24:27;4.10;;;2.17;;
3795;SDS011;1913;50.660;7.834;2023-02-28T08:26:52;2.30;;;2.10;;
3795;SDS011;1913;50.660;7.834;2023-02-28T08:29:18;2.70;;;1.87;;
3795;SDS011;1913;50.660;7.834;2023-02-28T08:31:43;2.40;;;1.60;;
3795;SDS011;1913;50.660;7.834;2023-02-28T08:34:09;3.77;;;2.43;;
3795;SDS011;1913;50.660;7.834;2023-02-28T08:36:37;2.60;;;2.17;;
3795;SDS011;1913;50.660;7.834;2023-02-28T08:39:03;4.93;;;2.10;;
3795;SDS011;1913;50.660;7.834;2023-02-28T08:41:30;5.03;;;2.60;;
3795;SDS011;1913;50.660;7.834;2023-02-28T08:43:55;3.67;;;2.00;;
3795;SDS011;1913;50.660;7.834;2023-02-28T08:46:21;7.33;;;2.07;;
3795;SDS011;1913;50.660;7.834;2023-02-28T08:48:46;3.30;;;2.40;;
3795;SDS011;1913;50.660;7.834;2023-02-28T08:51:13;3.90;;;2.13;;
3795;SDS011;1913;50.660;7.834;2023-02-28T08:53:43;2.33;;;1.90;;
3795;SDS011;1913;50.660;7.834;2023-02-28T08:56:09;2.53;;;2.10;;
3795;SDS011;1913;50.660;7.834;2023-02-28T08:58:39;2.97;;;1.90;;
3795;SDS011;1913;50.660;7.834;2023-02-28T09:01:12;3.30;;;2.13;;
3795;SDS011;1913;50.660;7.834;2023-02-28T09:03:40;2.43;;;1.97;;
3795;SDS011;1913;50.660;7.834;2023-02-28T09:06:09;2.50;;;2.30;;
3795;SDS011;1913;50.660;7.834;2023-02-28T09:08:36;2.83;;;1.90;;
3795;SDS011;1913;50.660;7.834;2023-02-28T09:11:02;2.47;;;1.90;;
3795;SDS011;1913;50.660;7.834;2023-02-28T09:13:28;3.83;;;2.00;;
3795;SDS011;1913;50.660;7.834;2023-02-28T09:15:54;2.50;;;2.30;;
3795;SDS011;1913;50.660;7.834;2023-02-28T09:18:22;2.50;;;1.60;;
3795;SDS011;1913;50.660;7.834;2023-02-28T09:20:48;2.80;;;2.00;;
3795;SDS011;1913;50.660;7.834;2023-02-28T09:23:13;7.40;;;1.93;;
3795;SDS011;1913;50.660;7.834;2023-02-28T09:25:44;2.47;;;2.27;;
3795;SDS011;1913;50.660;7.834;2023-02-28T09:28:11;2.73;;;2.17;;
3795;SDS011;1913;50.660;7.834;2023-02-28T09:30:37;2.97;;;2.10;;
3795;SDS011;1913;50.660;7.834;2023-02-28T09:33:02;4.03;;;2.17;;
3795;SDS011;1913;50.660;7.834;2023-02-28T09:35:28;2.17;;;1.97;;
3795;SDS011;1913;50.660;7.834;2023-02-28T09:37:55;4.53;;;1.90;;
3795;SDS011;1913;50.660;7.834;2023-02-28T09:40:23;2.23;;;2.03;;
3795;SDS011;1913;50.660;7.834;2023-02-28T09:42:51;2.03;;;1.70;;
3795;SDS011;1913;50.660;7.834;2023-02-28T09:48:12;3.00;;;2.40;;
3795;SDS011;1913;50.660;7.834;2023-02-28T09:50:46;2.90;;;2.10;;
3795;SDS011;1913;50.660;7.834;2023-02-28T09:53:26;3.50;;;2.10;;
3795;SDS011;1913;50.660;7.834;2023-02-28T09:55:59;4.40;;;2.20;;
3795;SDS011;1913;50.660;7.834;2023-02-28T10:04:23;2.10;;;1.90;;
3795;SDS011;1913;50.660;7.834;2023-02-28T10:07:01;7.70;;;2.10;;
3795;SDS011;1913;50.660;7.834;2023-02-28T10:09:43;2.63;;;2.20;;
3795;SDS011;1913;50.660;7.834;2023-02-28T17:04:17;6.73;;;4.60;;
3795;SDS011;1913;50.660;7.834;2023-02-28T17:06:43;7.07;;;5.17;;
3795;SDS011;1913;50.660;7.834;2023-02-28T17:09:19;7.50;;;4.67;;
3795;SDS011;1913;50.660;7.834;2023-02-28T17:11:46;8.57;;;4.37;;
3795;SDS011;1913;50.660;7.834;2023-02-28T17:14:12;7.80;;;5.63;;
3795;SDS011;1913;50.660;7.834;2023-02-28T17:16:39;7.43;;;4.80;;
3795;SDS011;1913;50.660;7.834;2023-02-28T17:19:05;7.17;;;5.43;;
3795;SDS011;1913;50.660;7.834;2023-02-28T17:21:34;8.83;;;4.83;;
3795;SDS011;1913;50.660;7.834;2023-02-28T17:23:59;8.10;;;4.90;;
3795;SDS011;1913;50.660;7.834;2023-02-28T17:26:25;6.63;;;4.73;;
3795;SDS011;1913;50.660;7.834;2023-02-28T17:28:52;10.13;;;5.80;;
3795;SDS011;1913;50.660;7.834;2023-02-28T17:31:19;7.17;;;5.03;;
3795;SDS011;1913;50.660;7.834;2023-02-28T17:33:45;9.30;;;6.17;;
3795;SDS011;1913;50.660;7.834;2023-02-28T17:36:14;7.93;;;4.70;;
3795;SDS011;1913;50.660;7.834;2023-02-28T17:38:42;6.10;;;5.27;;
3795;SDS011;1913;50.660;7.834;2023-02-28T17:41:09;7.73;;;4.97;;
3795;SDS011;1913;50.660;7.834;2023-02-28T17:43:35;8.97;;;4.70;;
3795;SDS011;1913;50.660;7.834;2023-02-28T17:46:01;10.03;;;4.90;;
3795;SDS011;1913;50.660;7.834;2023-02-28T17:48:27;8.00;;;4.90;;
3795;SDS011;1913;50.660;7.834;2023-02-28T17:50:52;9.90;;;4.97;;
3795;SDS011;1913;50.660;7.834;2023-02-28T17:53:19;10.93;;;5.10;;
3795;SDS011;1913;50.660;7.834;2023-02-28T17:55:48;9.20;;;5.40;;
3795;SDS011;1913;50.660;7.834;2023-02-28T17:58:13;5.90;;;4.67;;
3795;SDS011;1913;50.660;7.834;2023-02-28T18:00:39;7.27;;;4.60;;
3795;SDS011;1913;50.660;7.834;2023-02-28T18:03:05;8.23;;;5.40;;
3795;SDS011;1913;50.660;7.834;2023-02-28T18:05:30;8.97;;;5.20;;
3795;SDS011;1913;50.660;7.834;2023-02-28T18:07:56;7.63;;;5.53;;
3795;SDS011;1913;50.660;7.834;2023-02-28T18:10:22;7.40;;;5.03;;
3795;SDS011;1913;50.660;7.834;2023-02-28T18:12:48;8.83;;;5.73;;
3795;SDS011;1913;50.660;7.834;2023-02-28T18:15:17;7.47;;;5.27;;
3795;SDS011;1913;50.660;7.834;2023-02-28T18:17:45;5.80;;;4.13;;
3795;SDS011;1913;50.660;7.834;2023-02-28T18:20:11;7.63;;;4.90;;
3795;SDS011;1913;50.660;7.834;2023-02-28T18:22:37;6.87;;;4.63;;
3795;SDS011;1913;50.660;7.834;2023-02-28T18:25:04;7.70;;;4.77;;
3795;SDS011;1913;50.660;7.834;2023-02-28T18:27:30;8.33;;;5.80;;
3795;SDS011;1913;50.660;7.834;2023-02-28T18:29:56;11.37;;;6.63;;
3795;SDS011;1913;50.660;7.834;2023-02-28T18:32:21;14.97;;;9.10;;
3795;SDS011;1913;50.660;7.834;2023-02-28T18:34:47;12.57;;;7.70;;
3795;SDS011;1913;50.660;7.834;2023-02-28T18:37:12;10.47;;;6.20;;
3795;SDS011;1913;50.660;7.834;2023-02-28T18:39:39;10.87;;;7.80;;
3795;SDS011;1913;50.660;7.834;2023-02-28T18:42:04;18.60;;;8.93;;
3795;SDS011;1913;50.660;7.834;2023-02-28T18:44:30;18.47;;;9.07;;
3795;SDS011;1913;50.660;7.834;2023-02-28T18:46:55;16.40;;;8.60;;
3795;SDS011;1913;50.660;7.834;2023-02-28T18:49:21;12.77;;;7.70;;
3795;SDS011;1913;50.660;7.834;2023-02-28T18:51:47;17.70;;;7.50;;
3795;SDS011;1913;50.660;7.834;2023-02-28T18:54:13;13.80;;;6.90;;
3795;SDS011;1913;50.660;7.834;2023-02-28T18:56:39;11.13;;;7.13;;
3795;SDS011;1913;50.660;7.834;2023-02-28T18:59:05;11.33;;;7.03;;
3795;SDS011;1913;50.660;7.834;2023-02-28T19:01:31;16.23;;;10.10;;
3795;SDS011;1913;50.660;7.834;2023-02-28T19:03:58;13.00;;;7.60;;
3795;SDS011;1913;50.660;7.834;2023-02-28T19:06:24;16.93;;;7.93;;
3795;SDS011;1913;50.660;7.834;2023-02-28T19:08:54;8.50;;;6.37;;
3795;SDS011;1913;50.660;7.834;2023-02-28T19:11:21;12.60;;;6.90;;
3795;SDS011;1913;50.660;7.834;2023-02-28T19:13:48;10.60;;;6.33;;
3795;SDS011;1913;50.660;7.834;2023-02-28T19:16:14;11.17;;;6.73;;
3795;SDS011;1913;50.660;7.834;2023-02-28T19:18:41;10.93;;;7.27;;
3795;SDS011;1913;50.660;7.834;2023-02-28T19:21:08;12.97;;;6.53;;
3795;SDS011;1913;50.660;7.834;2023-02-28T19:23:35;14.27;;;7.87;;
3795;SDS011;1913;50.660;7.834;2023-02-28T19:26:08;9.83;;;7.27;;
3795;SDS011;1913;50.660;7.834;2023-02-28T19:28:36;17.00;;;8.40;;
3795;SDS011;1913;50.660;7.834;2023-02-28T19:31:02;18.83;;;8.40;;
3795;SDS011;1913;50.660;7.834;2023-02-28T19:33:28;16.17;;;8.40;;
3795;SDS011;1913;50.660;7.834;2023-02-28T19:35:53;17.93;;;7.90;;
3795;SDS011;1913;50.660;7.834;2023-02-28T19:38:19;11.70;;;6.90;;
3795;SDS011;1913;50.660;7.834;2023-02-28T19:40:44;16.33;;;7.30;;
3795;SDS011;1913;50.660;7.834;2023-02-28T19:43:10;15.37;;;7.77;;
3795;SDS011;1913;50.660;7.834;2023-02-28T19:45:36;16.67;;;7.17;;
3795;SDS011;1913;50.660;7.834;2023-02-28T19:48:02;10.40;;;6.37;;
3795;SDS011;1913;50.660;7.834;2023-02-28T19:50:30;15.23;;;7.27;;
3795;SDS011;1913;50.660;7.834;2023-02-28T19:52:56;13.07;;;7.47;;
3795;SDS011;1913;50.660;7.834;2023-02-28T19:55:21;14.90;;;8.20;;
3795;SDS011;1913;50.660;7.834;2023-02-28T19:57:47;14.70;;;7.70;;
3795;SDS011;1913;50.660;7.834;2023-02-28T20:00:13;17.33;;;9.20;;
3795;SDS011;1913;50.660;7.834;2023-02-28T20:02:40;20.00;;;10.53;;
3795;SDS011;1913;50.660;7.834;2023-02-28T20:05:06;14.33;;;8.30;;
3795;SDS011;1913;50.660;7.834;2023-02-28T20:07:33;16.00;;;8.53;;
3795;SDS011;1913;50.660;7.834;2023-02-28T20:09:58;21.10;;;9.30;;
3795;SDS011;1913;50.660;7.834;2023-02-28T20:12:24;17.60;;;9.30;;
3795;SDS011;1913;50.660;7.834;2023-02-28T20:14:50;17.17;;;10.33;;
3795;SDS011;1913;50.660;7.834;2023-02-28T20:17:17;17.90;;;10.00;;
3795;SDS011;1913;50.660;7.834;2023-02-28T20:19:43;33.37;;;13.50;;
3795;SDS011;1913;50.660;7.834;2023-02-28T20:22:08;49.10;;;17.47;;
3795;SDS011;1913;50.660;7.834;2023-02-28T20:24:37;29.87;;;12.90;;
3795;SDS011;1913;50.660;7.834;2023-02-28T20:27:02;26.70;;;12.07;;
3795;SDS011;1913;50.660;7.834;2023-02-28T20:29:28;17.80;;;8.70;;
3795;SDS011;1913;50.660;7.834;2023-02-28T20:31:54;15.07;;;8.27;;
3795;SDS011;1913;50.660;7.834;2023-02-28T20:34:21;11.07;;;7.00;;
3795;SDS011;1913;50.660;7.834;2023-02-28T20:36:48;15.47;;;8.70;;
3795;SDS011;1913;50.660;7.834;2023-02-28T20:39:13;51.00;;;17.53;;
3795;SDS011;1913;50.660;7.834;2023-02-28T20:41:40;37.43;;;11.47;;
3795;SDS011;1913;50.660;7.834;2023-02-28T20:44:06;16.67;;;8.03;;
3795;SDS011;1913;50.660;7.834;2023-02-28T20:46:36;14.37;;;8.23;;
3795;SDS011;1913;50.660;7.834;2023-02-28T20:49:01;22.10;;;9.83;;
3795;SDS011;1913;50.660;7.834;2023-02-28T20:51:28;15.43;;;8.30;;
3795;SDS011;1913;50.660;7.834;2023-02-28T20:53:54;13.33;;;7.73;;
3795;SDS011;1913;50.660;7.834;2023-02-28T20:56:21;13.20;;;7.67;;
3795;SDS011;1913;50.660;7.834;2023-02-28T20:58:48;20.67;;;9.60;;
3795;SDS011;1913;50.660;7.834;2023-02-28T21:01:18;12.07;;;7.30;;
3795;SDS011;1913;50.660;7.834;2023-02-28T21:03:52;13.63;;;8.20;;
3795;SDS011;1913;50.660;7.834;2023-02-28T21:06:23;14.07;;;8.53;;
3795;SDS011;1913;50.660;7.834;2023-02-28T21:08:55;15.10;;;7.90;;
3795;SDS011;1913;50.660;7.834;2023-02-28T21:11:25;12.43;;;7.67;;
3795;SDS011;1913;50.660;7.834;2023-02-28T21:13:53;11.33;;;7.30;;
3795;SDS011;1913;50.660;7.834;2023-02-28T21:16:21;14.07;;;7.37;;
3795;SDS011;1913;50.660;7.834;2023-02-28T21:18:47;8.57;;;7.30;;
3795;SDS011;1913;50.660;7.834;2023-02-28T21:21:14;13.17;;;7.93;;
3795;SDS011;1913;50.660;7.834;2023-02-28T21:23:41;14.80;;;9.43;;
3795;SDS011;1913;50.660;7.834;2023-02-28T21:26:10;13.17;;;8.70;;
3795;SDS011;1913;50.660;7.834;2023-02-28T21:28:37;13.27;;;8.17;;
3795;SDS011;1913;50.660;7.834;2023-02-28T21:31:08;12.40;;;8.00;;
3795;SDS011;1913;50.660;7.834;2023-02-28T21:33:35;12.93;;;7.87;;
3795;SDS011;1913;50.660;7.834;2023-02-28T21:38:30;12.03;;;7.70;;
3795;SDS011;1913;50.660;7.834;2023-02-28T21:41:02;14.73;;;7.77;;
3795;SDS011;1913;50.660;7.834;2023-02-28T21:43:28;11.50;;;7.50;;
3795;SDS011;1913;50.660;7.834;2023-02-28T21:45:53;10.63;;;6.97;;
3795;SDS011;1913;50.660;7.834;2023-02-28T21:48:19;12.23;;;8.13;;
3795;SDS011;1913;50.660;7.834;2023-02-28T21:50:58;12.43;;;7.97;;
3795;SDS011;1913;50.660;7.834;2023-02-28T21:53:29;16.23;;;8.23;;
3795;SDS011;1913;50.660;7.834;2023-02-28T21:56:38;11.97;;;7.80;;
3795;SDS011;1913;50.660;7.834;2023-02-28T21:58:46;11.50;;;7.97;;
3795;SDS011;1913;50.660;7.834;2023-02-28T22:03:43;12.87;;;7.37;;
3795;SDS011;1913;50.660;7.834;2023-02-28T22:06:11;11.53;;;7.77;;
3795;SDS011;1913;50.660;7.834;2023-02-28T22:08:39;14.23;;;8.20;;
3795;SDS011;1913;50.660;7.834;2023-02-28T22:11:06;12.63;;;8.30;;
3795;SDS011;1913;50.660;7.834;2023-02-28T22:13:32;17.20;;;8.80;;
3795;SDS011;1913;50.660;7.834;2023-02-28T22:16:04;13.73;;;8.03;;
3795;SDS011;1913;50.660;7.834;2023-02-28T22:18:36;12.97;;;8.70;;
3795;SDS011;1913;50.660;7.834;2023-02-28T22:21:02;14.23;;;9.33;;
3795;SDS011;1913;50.660;7.834;2023-02-28T22:23:29;14.33;;;8.33;;
3795;SDS011;1913;50.660;7.834;2023-02-28T22:25:56;15.20;;;8.07;;
3795;SDS011;1913;50.660;7.834;2023-02-28T22:28:24;13.50;;;8.57;;
3795;SDS011;1913;50.660;7.834;2023-02-28T22:30:53;13.30;;;8.10;;
3795;SDS011;1913;50.660;7.834;2023-02-28T22:33:18;12.93;;;7.80;;
3795;SDS011;1913;50.660;7.834;2023-02-28T22:35:44;16.20;;;8.83;;
3795;SDS011;1913;50.660;7.834;2023-02-28T22:38:09;15.20;;;7.67;;
3795;SDS011;1913;50.660;7.834;2023-02-28T22:40:35;12.57;;;8.23;;
3795;SDS011;1913;50.660;7.834;2023-02-28T22:43:01;11.60;;;8.03;;
3795;SDS011;1913;50.660;7.834;2023-02-28T22:45:26;18.10;;;8.70;;
3795;SDS011;1913;50.660;7.834;2023-02-28T22:47:52;12.97;;;7.80;;